createdAt,value
2023-05-14T00:04:52.706Z,101527.72
2023-05-14T00:09:54.666Z,101514.56
2023-05-14T00:14:56.908Z,101502.22
2023-05-14T00:20:00.816Z,101506.88
2023-05-14T00:25:03.235Z,101489.34
2023-05-14T00:30:07.025Z,101480.03
2023-05-14T00:35:09.389Z,101489.34
2023-05-14T00:40:13.119Z,101494.56
2023-05-14T00:45:15.150Z,101495.91
2023-05-14T00:50:18.612Z,101488.25
2023-05-14T00:55:22.549Z,101487.16
2023-05-14T01:05:14.133Z,101478.91
2023-05-14T01:10:25.568Z,101475.91
2023-05-14T01:15:31.681Z,101471.78
2023-05-14T01:20:33.598Z,101466.03
2023-05-14T01:25:35.989Z,101456.44
2023-05-14T01:30:46.333Z,101461.91
2023-05-14T01:35:49.842Z,101452.06
2023-05-14T01:41:03.442Z,101449.81
2023-05-14T01:46:05.707Z,101445.97
2023-05-14T01:51:07.605Z,101437.75
2023-05-14T01:56:11.916Z,101432.81
2023-05-14T02:01:13.982Z,101435.84
2023-05-14T02:06:16.136Z,101426.25
2023-05-14T02:11:20.293Z,101437.75
2023-05-14T02:21:27.110Z,101426.22
2023-05-14T02:27:27.987Z,101432.53
2023-05-14T02:32:30.820Z,101424.59
2023-05-14T02:37:34.782Z,101421.84
2023-05-14T02:46:26.451Z,101423.50
2023-05-14T02:52:37.040Z,101414.69
2023-05-14T02:57:38.902Z,101414.97
2023-05-14T03:02:42.142Z,101408.09
2023-05-14T03:07:47.568Z,101410.28
2023-05-14T03:12:49.906Z,101418.78
2023-05-14T03:17:52.302Z,101410.84
2023-05-14T03:22:54.761Z,101409.19
2023-05-14T03:27:57.034Z,101408.09
2023-05-14T03:32:59.686Z,101409.72
2023-05-14T03:38:01.881Z,101421.78
2023-05-14T03:43:03.810Z,101417.38
2023-05-14T03:48:06.281Z,101425.31
2023-05-14T03:53:09.912Z,101420.63
2023-05-14T03:58:14.208Z,101423.09
2023-05-14T04:03:48.986Z,101419.25
2023-05-14T04:08:55.761Z,101424.97
2023-05-14T04:16:20.008Z,101428.53
2023-05-14T04:22:00.808Z,101434.84
2023-05-14T04:27:43.563Z,101423.63
2023-05-14T04:33:26.265Z,101419.53
2023-05-14T04:48:09.062Z,101415.16
2023-05-14T04:53:11.450Z,101429.66
2023-05-14T04:58:13.439Z,101429.41
2023-05-14T05:03:24.523Z,101429.41
2023-05-14T05:08:26.770Z,101429.41
2023-05-14T05:13:28.838Z,101438.72
2023-05-14T05:18:30.824Z,101425.84
2023-05-14T05:23:32.883Z,101428.31
2023-05-14T05:28:34.797Z,101436.25
2023-05-14T05:38:08.003Z,101450.78
2023-05-14T05:43:09.974Z,101431.06
2023-05-14T05:48:12.150Z,101425.06
2023-05-14T05:53:16.584Z,101430.53
2023-05-14T05:58:19.823Z,101422.88
2023-05-14T06:03:22.334Z,101417.41
2023-05-14T06:08:24.374Z,101427.59
2023-05-14T06:13:26.498Z,101428.97
2023-05-14T06:18:28.331Z,101435.56
2023-05-14T06:23:30.614Z,101440.22
2023-05-14T06:28:32.704Z,101436.66
2023-05-14T06:33:34.687Z,101442.72
2023-05-14T06:38:36.641Z,101440.53
2023-05-14T06:43:38.749Z,101456.44
2023-05-14T06:48:40.926Z,101458.34
2023-05-14T06:53:42.924Z,101467.13
2023-05-14T06:58:45.057Z,101470.69
2023-05-14T07:03:46.994Z,101477.75
2023-05-14T07:08:49.033Z,101478.13
2023-05-14T07:13:50.910Z,101482.91
2023-05-14T07:20:42.887Z,101474.94
2023-05-14T07:25:46.880Z,101475.88
2023-05-14T07:30:52.394Z,101469.13
2023-05-14T07:35:54.495Z,101471.50
2023-05-14T07:40:56.675Z,101473.78
2023-05-14T07:46:00.909Z,101471.13
2023-05-14T07:51:04.243Z,101467.38
2023-05-14T07:56:06.778Z,101475.22
2023-05-14T08:01:09.261Z,101471.91
2023-05-14T08:06:11.735Z,101471.13
2023-05-14T08:11:13.944Z,101464.59
2023-05-14T08:16:16.241Z,101468.53
2023-05-14T08:21:18.600Z,101457.16
2023-05-14T08:26:21.688Z,101460.50
2023-05-14T08:31:23.947Z,101451.44
2023-05-14T08:36:26.224Z,101455.88
2023-05-14T08:41:29.702Z,101455.09
2023-05-14T08:46:32.572Z,101447.00
2023-05-14T08:51:35.508Z,101451.63
2023-05-14T08:56:38.966Z,101455.72
2023-05-14T09:01:47.831Z,101460.81
2023-05-14T09:06:51.597Z,101456.59
2023-05-14T09:11:54.275Z,101451.34
2023-05-14T09:20:39.302Z,101445.31
2023-05-14T10:02:37.952Z,101446.16
2023-05-14T10:07:44.688Z,101443.91
2023-05-14T10:12:53.355Z,101445.81
2023-05-14T10:18:08.111Z,101440.59
2023-05-14T10:23:10.755Z,101447.19
2023-05-14T10:28:12.879Z,101440.94
2023-05-14T10:33:16.814Z,101447.19
2023-05-14T10:38:30.536Z,101437.66
2023-05-14T10:43:41.520Z,101441.56
2023-05-14T10:48:44.614Z,101436.56
2023-05-14T10:53:47.814Z,101434.50
2023-05-14T10:58:50.121Z,101431.22
2023-05-14T11:03:58.666Z,101441.97
2023-05-14T11:09:06.022Z,101439.75
2023-05-14T11:14:09.599Z,101429.00
2023-05-14T11:20:41.064Z,101418.28
2023-05-14T11:25:43.208Z,101415.63
2023-05-14T11:30:46.556Z,101415.81
2023-05-14T11:36:03.321Z,101405.25
2023-05-14T11:41:05.861Z,101399.84
2023-05-14T11:46:08.236Z,101395.34
2023-05-14T11:51:10.372Z,101399.66
2023-05-14T11:56:12.597Z,101404.97
2023-05-14T12:01:15.962Z,101384.72
2023-05-14T12:06:18.363Z,101389.72
2023-05-14T12:11:21.362Z,101369.38
2023-05-14T12:16:23.525Z,101382.06
2023-05-14T12:21:29.203Z,101372.66
2023-05-14T12:26:34.252Z,101380.44
2023-05-14T12:31:36.804Z,101371.81
2023-05-14T12:36:39.029Z,101377.34
2023-05-14T12:41:41.312Z,101363.44
2023-05-14T12:46:43.459Z,101364.88
2023-05-14T12:51:47.018Z,101359.47
2023-05-14T12:56:49.221Z,101363.34
2023-05-14T13:01:51.369Z,101352.59
2023-05-14T13:06:53.681Z,101339.81
2023-05-14T13:11:55.881Z,101349.72
2023-05-14T13:16:57.969Z,101337.06
2023-05-14T13:21:59.985Z,101339.81
2023-05-14T13:27:02.512Z,101354.44
2023-05-14T13:32:13.143Z,101358.00
2023-05-14T13:37:15.035Z,101363.56
2023-05-14T13:42:16.989Z,101379.91
2023-05-14T13:47:19.148Z,101397.75
2023-05-14T13:52:21.853Z,101438.31
2023-05-14T13:57:23.751Z,101455.53
2023-05-14T14:02:26.051Z,101450.22
2023-05-14T14:07:28.033Z,101387.28
2023-05-14T14:12:30.192Z,101386.94
2023-05-14T14:17:34.078Z,101374.00
2023-05-14T14:22:36.722Z,101381.28
2023-05-14T14:27:39.565Z,101376.22
2023-05-14T14:32:51.329Z,101369.06
2023-05-14T14:37:55.924Z,101361.34
2023-05-14T14:43:04.178Z,101354.66
2023-05-14T14:48:28.868Z,101350.63
2023-05-14T14:53:31.270Z,101327.34
2023-05-14T14:58:33.396Z,101327.94
2023-05-14T15:03:35.597Z,101322.94
2023-05-14T15:08:37.841Z,101318.88
2023-05-14T15:13:41.883Z,101311.94
2023-05-14T15:18:44.052Z,101322.81
2023-05-14T15:23:47.500Z,101319.66
2023-05-14T15:28:49.618Z,101299.41
2023-05-14T15:33:54.123Z,101311.78
2023-05-14T15:38:56.286Z,101317.19
2023-05-14T15:43:58.688Z,101312.38
2023-05-14T15:49:00.865Z,101317.63
2023-05-14T15:54:03.112Z,101326.63
2023-05-14T15:59:05.397Z,101335.63
2023-05-14T16:04:07.442Z,101337.56
2023-05-14T16:09:09.544Z,101343.91
2023-05-14T16:14:12.036Z,101346.66
2023-05-14T16:19:14.168Z,101360.75
2023-05-14T16:24:18.437Z,101367.91
2023-05-14T16:29:20.551Z,101369.03
2023-05-14T16:34:22.711Z,101383.97
2023-05-14T16:39:24.744Z,101405.53
2023-05-14T16:44:26.838Z,101413.91
2023-05-14T16:49:28.922Z,101403.00
2023-05-14T16:54:37.940Z,101369.44
2023-05-14T16:59:41.630Z,101346.44
2023-05-14T17:04:45.471Z,101328.31
2023-05-14T17:09:47.596Z,101307.75
2023-05-14T17:14:49.626Z,101298.44
2023-05-14T17:19:52.055Z,101289.47
2023-05-14T17:24:54.416Z,101287.81
2023-05-14T17:29:57.590Z,101290.28
2023-05-14T17:35:02.848Z,101284.34
2023-05-14T17:40:05.663Z,101285.88
2023-05-14T17:45:11.072Z,101282.53
2023-05-14T17:50:13.193Z,101297.66
2023-05-14T17:55:17.478Z,101302.56
2023-05-14T18:00:19.680Z,101295.63
2023-05-14T18:05:21.962Z,101307.78
2023-05-14T18:10:25.165Z,101314.50
2023-05-14T18:15:27.550Z,101317.63
2023-05-14T18:20:29.797Z,101325.78
2023-05-14T18:25:32.033Z,101341.88
2023-05-14T18:30:34.296Z,101351.03
2023-05-14T18:35:36.550Z,101370.41
2023-05-14T18:40:38.804Z,101370.75
2023-05-14T18:45:41.138Z,101385.13
2023-05-14T18:50:43.340Z,101388.47
2023-05-14T18:55:45.751Z,101386.31
2023-05-14T19:00:48.272Z,101378.63
2023-05-14T19:05:53.453Z,101394.63
2023-05-14T19:10:55.525Z,101383.69
2023-05-14T19:20:39.939Z,101409.66
2023-05-14T19:26:07.120Z,101426.72
2023-05-14T19:31:09.346Z,101437.13
2023-05-14T19:36:11.319Z,101439.59
2023-05-14T19:41:13.864Z,101444.28
2023-05-14T19:46:16.115Z,101452.25
2023-05-14T19:51:18.195Z,101455.31
2023-05-14T19:56:20.288Z,101464.69
2023-05-14T20:01:23.691Z,101463.84
2023-05-14T20:06:26.006Z,101464.69
2023-05-14T20:11:28.088Z,101464.97
2023-05-14T20:16:30.799Z,101476.81
2023-05-14T20:21:32.936Z,101471.31
2023-05-14T20:26:35.246Z,101452.63
2023-05-14T20:31:37.341Z,101454.03
2023-05-14T20:36:40.126Z,101459.81
2023-05-14T20:41:42.475Z,101457.06
2023-05-14T20:46:51.769Z,101460.41
2023-05-14T20:51:54.199Z,101449.97
2023-05-14T20:56:56.650Z,101460.47
2023-05-14T21:01:58.918Z,101459.72
2023-05-14T21:07:01.468Z,101461.13
2023-05-14T21:12:05.786Z,101453.44
2023-05-14T21:17:12.438Z,101450.69
2023-05-14T21:22:14.615Z,101444.91
2023-05-14T21:27:17.244Z,101451.81
2023-05-14T21:32:20.334Z,101446.38
2023-05-14T21:37:22.586Z,101458.78
2023-05-14T21:42:24.695Z,101451.41
2023-05-14T21:47:27.334Z,101452.56
2023-05-14T21:52:33.131Z,101445.47
2023-05-14T21:57:37.920Z,101442.75
2023-05-14T22:02:40.171Z,101442.81
2023-05-14T22:07:42.524Z,101444.19
2023-05-14T22:12:45.848Z,101451.63
2023-05-14T22:17:48.218Z,101457.13
2023-05-14T22:22:52.017Z,101460.19
2023-05-14T22:28:03.262Z,101455.78
2023-05-14T22:33:05.588Z,101447.25
2023-05-14T22:38:10.540Z,101442.56
2023-05-14T22:43:15.739Z,101438.69
2023-05-14T22:48:18.299Z,101440.63
2023-05-14T22:53:35.963Z,101434.34
2023-05-14T22:58:41.013Z,101437.16
2023-05-14T23:03:43.047Z,101441.06
2023-05-14T23:08:45.032Z,101427.63
2023-05-14T23:13:47.235Z,101430.44
2023-05-14T23:20:44.404Z,101429.38
2023-05-14T23:25:46.513Z,101420.59
2023-05-14T23:30:48.710Z,101408.53
2023-05-14T23:35:52.214Z,101386.28
2023-05-14T23:40:54.155Z,101391.78
2023-05-14T23:45:59.384Z,101387.41
2023-05-14T23:51:01.676Z,101370.59
2023-05-14T23:56:04.095Z,101379.16
